Time;durP1;ratioP1;P1;durP2;ratioP2;P2;SDS_P1;SDS_P2;PMS_P1;PMS_P2;Temp;Humidity;BMP_temperature;BMP_pressure;BME280_temperature;BME280_humidity;BME280_pressure;Samples;Min_cycle;Max_cycle;Signal;HPM_P1;HPM_P2
2024/01/29 00:03:54;;;;;;;0.00;0.00;;;;;;;2.25;62.45;102671.50;15715997;28;20547;-50
2024/01/29 00:11:33;;;;;;;0.10;0.10;;;;;;;2.61;61.61;102661.88;15732758;28;20360;-50
2024/01/29 00:19:07;;;;;;;0.73;0.40;;;;;;;2.01;63.36;102661.69;15735317;28;20041;-50
2024/01/29 00:26:41;;;;;;;0.85;0.47;;;;;;;2.10;62.44;102664.63;15735005;28;20426;-43
2024/01/29 00:34:15;;;;;;;0.00;0.00;;;;;;;1.78;63.36;102662.44;15715346;28;20082;-47
2024/01/29 00:41:49;;;;;;;;;;;;;;;2.06;62.78;102645.47;15734029;28;20049;-46
2024/01/29 00:49:25;;;;;;;0.00;0.00;;;;;;;1.41;64.89;102641.13;15671888;28;19920;-48
2024/01/29 00:57:00;;;;;;;0.08;0.08;;;;;;;1.49;65.15;102633.53;15722813;28;20144;-47
2024/01/29 01:04:42;;;;;;;1.27;1.17;;;;;;;1.77;63.51;102643.06;15732231;28;20048;-44
2024/01/29 01:12:30;;;;;;;;;;;;;;;1.59;64.78;102640.84;15731740;28;20169;-47
2024/01/29 01:20:11;;;;;;;;;;;;;;;2.18;62.76;102636.66;15705527;28;19920;-45
2024/01/29 01:27:45;;;;;;;0.00;0.00;;;;;;;1.98;62.55;102643.34;15708083;23;19972;-52
2024/01/29 01:35:20;;;;;;;0.00;0.00;;;;;;;1.70;63.04;102649.72;15700994;28;20052;-51
2024/01/29 01:42:53;;;;;;;0.30;0.30;;;;;;;1.93;63.07;102648.13;15798755;28;20082;-49
2024/01/29 01:50:35;;;;;;;0.10;0.10;;;;;;;1.81;63.71;102640.19;15720431;28;20036;-49
2024/01/29 01:58:09;;;;;;;0.90;0.47;;;;;;;1.74;64.21;102627.38;15735196;28;20484;-49
2024/01/29 02:05:44;;;;;;;0.00;0.00;;;;;;;1.68;64.64;102621.63;15739034;28;20048;-51
2024/01/29 02:13:18;;;;;;;0.00;0.00;;;;;;;1.34;65.65;102604.59;15742543;28;20243;-49
2024/01/29 02:20:56;;;;;;;0.20;0.20;;;;;;;1.31;65.09;102530.75;15739328;28;20572;-49
2024/01/29 02:28:33;;;;;;;0.55;0.55;;;;;;;1.68;64.69;102572.22;15781718;28;20509;-49
2024/01/29 02:36:08;;;;;;;0.65;0.63;;;;;;;1.54;65.44;102564.41;15804023;28;20044;-51
2024/01/29 02:43:46;;;;;;;0.00;0.00;;;;;;;1.93;64.55;102571.34;15850777;28;20081;-53
2024/01/29 02:51:24;;;;;;;0.38;0.38;;;;;;;1.95;64.61;102574.69;15781370;28;20048;-50
2024/01/29 02:59:00;;;;;;;0.32;0.32;;;;;;;2.06;64.37;102575.78;15793719;28;20060;-51
2024/01/29 03:06:34;;;;;;;0.22;0.22;;;;;;;2.19;63.19;102569.47;15822194;28;20067;-49
2024/01/29 03:14:12;;;;;;;3.63;0.55;;;;;;;2.06;63.91;102566.00;15867033;28;20044;-50
2024/01/29 03:21:45;;;;;;;0.00;0.00;;;;;;;1.76;65.01;102559.28;15853746;28;20086;-48
2024/01/29 03:29:22;;;;;;;0.10;0.10;;;;;;;1.91;64.11;102557.38;15784119;28;20472;-50
2024/01/29 03:36:59;;;;;;;0.30;0.30;;;;;;;2.08;63.65;102555.31;15795817;28;20044;-53
2024/01/29 03:44:35;;;;;;;0.30;0.30;;;;;;;1.93;64.84;102557.25;15798215;28;20078;-48
2024/01/29 03:52:09;;;;;;;0.10;0.10;;;;;;;1.73;65.19;102551.56;15803202;28;20255;-48
2024/01/29 03:59:44;;;;;;;0.05;0.05;;;;;;;1.93;64.74;102546.66;15796875;28;20048;-50
2024/01/29 04:07:21;;;;;;;0.00;0.00;;;;;;;1.90;64.71;102547.72;15795928;28;20497;-48
2024/01/29 04:14:56;;;;;;;0.13;0.13;;;;;;;1.62;64.26;102545.31;15788052;28;20040;-48
2024/01/29 04:22:37;;;;;;;0.10;0.10;;;;;;;1.47;64.94;102541.94;15773960;28;20052;-48
2024/01/29 04:30:13;;;;;;;0.10;0.10;;;;;;;1.38;65.91;102529.34;15780022;28;20063;-51
2024/01/29 04:37:50;;;;;;;0.10;0.10;;;;;;;1.14;66.93;102531.91;15752516;28;20388;-50
2024/01/29 04:45:29;;;;;;;0.10;0.10;;;;;;;0.53;68.72;102520.16;15776997;28;20044;-52
2024/01/29 04:53:03;;;;;;;0.00;0.00;;;;;;;0.35;70.88;102530.13;15793773;28;20045;-51
2024/01/29 05:00:38;;;;;;;6.43;3.78;;;;;;;0.86;68.81;102512.59;15783485;28;20041;-49
2024/01/29 05:08:13;;;;;;;0.30;0.22;;;;;;;1.00;67.93;102515.16;15787899;28;20048;-52
2024/01/29 05:15:50;;;;;;;0.10;0.10;;;;;;;1.00;67.38;102509.88;15773208;28;20459;-51
2024/01/29 05:23:23;;;;;;;0.00;0.00;;;;;;;0.73;67.63;102514.38;15802698;28;20040;-51
2024/01/29 05:30:58;;;;;;;0.10;0.10;;;;;;;0.49;67.54;102515.06;15745756;28;20576;-52
2024/01/29 05:38:32;;;;;;;1.88;1.70;;;;;;;0.62;68.79;102516.91;15744445;28;20421;-51
2024/01/29 05:46:25;;;;;;;0.10;0.10;;;;;;;0.65;67.63;102514.03;15730728;28;20063;-49
2024/01/29 05:54:00;;;;;;;0.00;0.00;;;;;;;0.34;68.96;102517.88;15721890;28;20059;-53
2024/01/29 06:01:36;;;;;;;0.08;0.08;;;;;;;0.28;69.20;102516.47;15748611;28;20071;-49
2024/01/29 06:09:10;;;;;;;0.47;0.47;;;;;;;0.09;70.59;102494.81;15739026;28;20079;-49
2024/01/29 06:16:49;;;;;;;0.25;0.17;;;;;;;0.44;69.72;102506.59;15743903;28;20052;-51
2024/01/29 06:24:23;;;;;;;0.10;0.10;;;;;;;0.54;69.77;102498.91;15749775;28;20044;-50
2024/01/29 06:31:57;;;;;;;0.30;0.30;;;;;;;0.60;69.54;102495.00;15820775;28;20063;-52
2024/01/29 06:39:33;;;;;;;0.20;0.20;;;;;;;0.70;69.95;102498.72;15819602;28;20067;-53
2024/01/29 06:47:10;;;;;;;0.70;0.57;;;;;;;0.72;69.49;102499.47;15766675;28;20055;-52
2024/01/29 06:54:43;;;;;;;0.00;0.00;;;;;;;0.88;68.48;102507.22;15797137;28;20412;-51
2024/01/29 07:02:29;;;;;;;1.17;1.07;;;;;;;0.94;68.04;102494.44;15813000;28;20088;-52
2024/01/29 07:10:13;;;;;;;0.10;0.10;;;;;;;0.89;68.05;102511.56;15802394;28;20054;-51
2024/01/29 07:17:49;;;;;;;0.10;0.10;;;;;;;0.88;67.90;102508.06;15831495;28;20040;-53
2024/01/29 07:25:22;;;;;;;0.00;0.00;;;;;;;0.93;68.04;102499.81;15795668;28;20081;-51
2024/01/29 07:32:59;;;;;;;0.30;0.30;;;;;;;1.11;66.67;102473.91;15815421;28;20036;-52
2024/01/29 07:40:33;;;;;;;0.32;0.32;;;;;;;1.13;66.99;102469.38;15797957;28;20060;-54
2024/01/29 07:48:09;;;;;;;1.65;1.23;;;;;;;1.40;66.51;102479.81;15820861;28;20048;-55
2024/01/29 07:55:43;;;;;;;0.00;0.00;;;;;;;1.93;64.71;102485.75;15833421;28;20054;-54
2024/01/29 08:03:18;;;;;;;0.47;0.47;;;;;;;3.07;61.03;102497.50;15849977;28;20039;-50
2024/01/29 08:10:53;;;;;;;0.25;0.25;;;;;;;2.69;62.10;102492.47;15864866;28;20048;-55
2024/01/29 08:18:28;;;;;;;0.08;0.08;;;;;;;2.74;61.57;102485.88;15847192;28;20039;-51
2024/01/29 08:26:04;;;;;;;0.10;0.10;;;;;;;3.01;60.95;102484.72;15817890;28;20119;-51
2024/01/29 08:33:43;;;;;;;0.32;0.32;;;;;;;3.33;59.05;102453.03;15808891;28;20122;-50
2024/01/29 08:41:17;;;;;;;0.45;0.45;;;;;;;4.22;57.46;102472.44;15812896;28;20119;-53
2024/01/29 08:48:52;;;;;;;;;;;;;;;4.63;55.46;102469.00;15808716;28;20655;-51
2024/01/29 08:56:26;;;;;;;0.00;0.00;;;;;;;4.96;54.29;102470.63;15806103;28;20190;-56
2024/01/29 09:04:01;;;;;;;0.10;0.10;;;;;;;5.45;52.63;102455.72;15801453;28;20066;-52
2024/01/29 09:11:36;;;;;;;0.00;0.00;;;;;;;5.92;51.53;102472.03;15821638;28;20047;-53
2024/01/29 09:19:13;;;;;;;1.35;1.08;;;;;;;6.16;49.86;102471.66;15848317;28;20043;-51
2024/01/29 09:26:47;;;;;;;0.00;0.00;;;;;;;6.56;49.03;102466.19;15813950;28;20044;-54
2024/01/29 09:34:22;;;;;;;0.00;0.00;;;;;;;7.19;48.24;102475.50;15795245;28;20557;-54
2024/01/29 09:42:02;;;;;;;0.60;0.60;;;;;;;7.53;46.34;102465.94;15768094;28;20048;-52
2024/01/29 09:49:39;;;;;;;2.95;0.63;;;;;;;7.47;46.91;102469.19;15776072;28;20098;-54
2024/01/29 09:57:15;;;;;;;1.55;0.75;;;;;;;8.65;43.54;102482.50;15796140;28;20048;-53
2024/01/29 10:04:51;;;;;;;0.00;0.00;;;;;;;8.09;45.43;102486.28;15795326;28;20044;-52
2024/01/29 10:12:26;;;;;;;0.35;0.35;;;;;;;8.85;44.07;102482.31;15794930;28;20526;-52
2024/01/29 10:20:02;;;;;;;0.20;0.20;;;;;;;8.92;42.97;102461.97;15780899;28;20032;-57
2024/01/29 10:27:36;;;;;;;0.00;0.00;;;;;;;9.54;41.94;102481.41;15861299;28;20131;-52
2024/01/29 10:35:11;;;;;;;;;;;;;;;9.99;41.33;102474.88;15828312;28;20039;-51
2024/01/29 10:42:49;;;;;;;0.00;0.00;;;;;;;10.61;40.11;102469.94;15856058;28;19941;-53
2024/01/29 10:50:27;;;;;;;0.10;0.10;;;;;;;10.45;39.37;102473.47;15860770;28;20047;-56
2024/01/29 10:58:04;;;;;;;1.08;0.35;;;;;;;10.67;38.33;102461.19;15850492;28;20045;-57
2024/01/29 11:05:43;;;;;;;0.00;0.00;;;;;;;10.88;36.45;102458.00;15836703;28;20458;-56
2024/01/29 11:13:22;;;;;;;1.10;0.75;;;;;;;11.96;35.30;102449.41;15809302;28;20086;-53
2024/01/29 11:20:57;;;;;;;0.00;0.00;;;;;;;11.62;36.41;102444.34;15865024;27;20062;-53
2024/01/29 11:28:33;;;;;;;1.45;0.35;;;;;;;12.30;34.64;102442.78;15840716;28;20564;-53
2024/01/29 11:36:13;;;;;;;0.20;0.20;;;;;;;12.87;33.04;102429.66;15868558;28;20184;-53
2024/01/29 11:43:48;;;;;;;1.23;1.08;;;;;;;12.49;33.19;102423.41;15844592;28;20040;-53
2024/01/29 11:51:24;;;;;;;0.98;0.88;;;;;;;12.18;34.81;102420.84;15821049;28;20115;-54
2024/01/29 11:59:01;;;;;;;0.32;0.32;;;;;;;12.15;35.25;102422.00;15828561;28;20124;-55
2024/01/29 12:06:37;;;;;;;0.00;0.00;;;;;;;11.36;35.97;102410.50;15814462;28;20416;-55
2024/01/29 12:14:10;;;;;;;0.90;0.20;;;;;;;11.02;36.44;102377.72;15818178;28;20519;-53
2024/01/29 12:21:46;;;;;;;0.77;0.65;;;;;;;10.53;38.18;102407.34;15835131;28;20044;-52
2024/01/29 12:29:20;;;;;;;3.55;0.90;;;;;;;10.81;38.06;102395.22;15819003;28;20046;-52
2024/01/29 12:36:55;;;;;;;0.28;0.28;;;;;;;10.76;37.39;102397.56;15837866;28;20047;-53
2024/01/29 12:44:29;;;;;;;0.00;0.00;;;;;;;11.44;36.58;102394.34;15869048;28;20067;-53
2024/01/29 12:52:09;;;;;;;0.25;0.25;;;;;;;10.86;38.30;102395.53;15817802;28;20040;-51
2024/01/29 12:59:43;;;;;;;0.00;0.00;;;;;;;12.34;35.19;102392.94;15803846;28;20044;-53
2024/01/29 13:07:19;;;;;;;0.00;0.00;;;;;;;11.97;35.49;102383.78;15863529;28;20496;-51
2024/01/29 13:14:54;;;;;;;0.00;0.00;;;;;;;11.80;36.49;102393.81;15861014;28;20507;-51
2024/01/29 13:22:30;;;;;;;4.55;0.93;;;;;;;11.37;37.12;102397.88;15852989;28;20040;-49
2024/01/29 13:30:03;;;;;;;1.85;0.68;;;;;;;11.09;37.72;102390.25;15785402;28;20040;-54
2024/01/29 13:37:38;;;;;;;0.25;0.25;;;;;;;10.89;37.81;102389.00;15791769;28;20051;-48
2024/01/29 13:45:15;;;;;;;0.00;0.00;;;;;;;10.80;38.46;102380.09;15777264;28;20040;-51
2024/01/29 13:52:50;;;;;;;0.10;0.10;;;;;;;10.37;39.75;102362.56;15775790;28;20058;-50
2024/01/29 14:00:23;;;;;;;0.00;0.00;;;;;;;10.39;40.21;102379.31;15752790;28;20047;-48
2024/01/29 14:07:59;;;;;;;0.00;0.00;;;;;;;10.99;38.88;102384.25;15780983;28;20036;-51
2024/01/29 14:15:33;;;;;;;0.00;0.00;;;;;;;10.61;39.70;102386.69;15750393;28;20036;-50
2024/01/29 14:23:09;;;;;;;0.10;0.10;;;;;;;10.32;40.23;102376.50;15784994;28;20052;-51
2024/01/29 14:30:43;;;;;;;0.65;0.38;;;;;;;9.87;41.14;102376.94;15765691;28;20493;-49
2024/01/29 14:38:18;;;;;;;0.57;0.50;;;;;;;10.12;41.28;102381.31;15798045;28;20036;-51
2024/01/29 14:45:55;;;;;;;0.00;0.00;;;;;;;9.34;41.78;102325.38;15783792;28;20504;-49
2024/01/29 14:53:30;;;;;;;1.38;0.70;;;;;;;9.64;42.05;102385.59;15789463;28;20135;-49
2024/01/29 15:01:04;;;;;;;0.10;0.10;;;;;;;9.43;42.46;102387.88;15811801;28;20047;-53
2024/01/29 15:08:40;;;;;;;1.55;0.82;;;;;;;10.06;41.54;102392.69;15788785;28;20067;-51
2024/01/29 15:16:15;;;;;;;0.00;0.00;;;;;;;9.84;41.40;102396.88;15771581;28;20034;-56
2024/01/29 15:23:51;;;;;;;0.70;0.50;;;;;;;9.96;41.27;102400.91;15803944;28;20052;-49
2024/01/29 15:31:29;;;;;;;0.57;0.08;;;;;;;9.75;42.93;102392.50;15839297;28;20040;-49
2024/01/29 15:39:07;;;;;;;0.00;0.00;;;;;;;9.19;42.42;102404.72;15801008;28;20131;-50
2024/01/29 15:46:44;;;;;;;0.15;0.15;;;;;;;8.83;43.25;102404.84;15850988;28;20108;-50
2024/01/29 15:54:24;;;;;;;0.00;0.00;;;;;;;9.15;42.97;102408.69;15871629;28;20040;-51
2024/01/29 16:01:57;;;;;;;0.10;0.10;;;;;;;9.08;43.23;102408.47;15852961;28;20534;-49
2024/01/29 16:09:32;;;;;;;0.85;0.73;;;;;;;8.99;44.47;102419.31;15832866;28;20032;-50
2024/01/29 16:17:08;;;;;;;0.00;0.00;;;;;;;8.50;45.67;102425.19;15834712;28;20040;-53
2024/01/29 16:24:51;;;;;;;0.00;0.00;;;;;;;7.93;47.29;102430.81;15831432;28;20126;-49
2024/01/29 16:32:24;;;;;;;1.00;0.88;;;;;;;7.50;48.82;102428.81;15868486;28;20072;-50
2024/01/29 16:39:59;;;;;;;;;;;;;;;7.15;49.49;102433.06;15830522;28;20024;-49
2024/01/29 16:47:34;;;;;;;0.25;0.25;;;;;;;6.93;50.20;102427.22;15813833;28;19940;-54
2024/01/29 16:55:10;;;;;;;0.52;0.52;;;;;;;6.78;51.30;102430.34;15822015;28;20050;-50
2024/01/29 17:02:47;;;;;;;2.00;1.52;;;;;;;6.65;51.47;102430.63;15809038;28;20059;-54
2024/01/29 17:10:23;;;;;;;1.45;1.35;;;;;;;6.81;50.71;102427.41;15805392;28;20412;-54
2024/01/29 17:17:58;;;;;;;0.20;0.20;;;;;;;6.67;51.60;102430.53;15807478;28;20047;-51
2024/01/29 17:25:33;;;;;;;2.55;1.88;;;;;;;6.19;52.72;102428.69;15806353;28;20184;-52
2024/01/29 17:33:07;;;;;;;2.08;1.25;;;;;;;5.79;54.08;102426.97;15807715;28;20040;-50
2024/01/29 17:40:42;;;;;;;0.00;0.00;;;;;;;5.40;55.04;102427.81;15805911;28;20036;-56
2024/01/29 17:48:16;;;;;;;0.10;0.10;;;;;;;5.23;55.77;102431.97;15839628;28;20477;-50
2024/01/29 17:55:51;;;;;;;;;;;;;;;5.17;56.38;102435.16;15851202;28;20070;-55
2024/01/29 18:03:25;;;;;;;0.32;0.32;;;;;;;4.86;57.31;102435.16;15837873;28;19927;-54
2024/01/29 18:10:59;;;;;;;;;;;;;;;5.01;57.31;102428.50;15797990;28;20419;-51
2024/01/29 18:18:33;;;;;;;2.05;1.65;;;;;;;4.78;57.77;102432.28;15852799;28;19931;-52
2024/01/29 18:26:10;;;;;;;;;;;;;;;4.84;57.89;102429.94;15803430;28;20079;-49
2024/01/29 18:33:47;;;;;;;0.10;0.10;;;;;;;4.71;58.13;102431.97;15811285;28;20015;-50
2024/01/29 18:41:24;;;;;;;0.50;0.50;;;;;;;4.52;59.44;102430.03;15807601;28;20438;-50
2024/01/29 18:48:59;;;;;;;0.45;0.40;;;;;;;4.36;59.54;102437.59;15802267;28;20638;-49
2024/01/29 18:56:34;;;;;;;0.40;0.40;;;;;;;4.28;60.19;102438.22;15784291;28;20044;-53
2024/01/29 19:04:08;;;;;;;0.10;0.10;;;;;;;4.14;60.48;102435.88;15800614;28;20040;-49
2024/01/29 19:11:43;;;;;;;0.20;0.20;;;;;;;4.13;60.39;102444.81;15817982;28;20577;-55
2024/01/29 19:19:16;;;;;;;0.57;0.57;;;;;;;3.91;60.51;102440.41;15844467;28;20063;-50
2024/01/29 19:26:51;;;;;;;0.90;0.82;;;;;;;3.65;61.16;102439.03;15824398;22;20054;-47
2024/01/29 19:34:25;;;;;;;0.20;0.20;;;;;;;3.73;60.94;102439.22;15824219;28;20050;-49
2024/01/29 19:42:00;;;;;;;;;;;;;;;3.63;61.87;102443.59;15825740;28;20047;-46
2024/01/29 19:49:34;;;;;;;3.42;0.98;;;;;;;3.52;62.11;102447.97;15870820;28;19972;-50
2024/01/29 19:57:13;;;;;;;0.10;0.10;;;;;;;3.45;62.42;102441.47;15852225;28;20095;-49
2024/01/29 20:04:49;;;;;;;0.22;0.22;;;;;;;3.33;62.81;102445.09;15851219;28;20519;-51
2024/01/29 20:12:24;;;;;;;1.00;1.00;;;;;;;3.37;62.51;102451.84;15834908;28;20139;-48
2024/01/29 20:19:57;;;;;;;0.47;0.47;;;;;;;3.28;62.96;102455.22;15850071;28;20043;-47
2024/01/29 20:27:34;;;;;;;0.57;0.57;;;;;;;3.22;63.04;102461.00;15845245;27;20037;-53
2024/01/29 20:35:10;;;;;;;0.22;0.22;;;;;;;3.10;64.02;102452.19;15803695;28;20089;-49
2024/01/29 20:42:47;;;;;;;1.10;1.02;;;;;;;2.83;63.91;102396.81;15803374;28;20127;-49
2024/01/29 20:50:21;;;;;;;1.77;1.63;;;;;;;3.61;63.11;102443.72;15855312;28;20445;-49
2024/01/29 20:57:56;;;;;;;0.00;0.00;;;;;;;3.90;62.04;102446.69;15834884;28;20050;-51
2024/01/29 21:05:31;;;;;;;0.10;0.10;;;;;;;4.12;60.98;102439.63;15844686;28;20073;-49
2024/01/29 21:13:06;;;;;;;0.08;0.08;;;;;;;4.19;60.78;102452.28;15865297;28;20035;-50
2024/01/29 21:20:42;;;;;;;0.52;0.52;;;;;;;4.23;60.56;102458.19;15864043;28;20035;-50
2024/01/29 21:28:17;;;;;;;0.08;0.08;;;;;;;4.47;59.65;102460.63;15815996;28;20086;-52
2024/01/29 21:35:51;;;;;;;0.03;0.03;;;;;;;4.37;59.95;102455.22;15795377;28;20040;-50
2024/01/29 21:43:27;;;;;;;0.70;0.70;;;;;;;4.42;59.72;102462.81;15781320;28;20071;-49
2024/01/29 21:51:01;;;;;;;0.17;0.17;;;;;;;4.02;59.51;102428.91;15855789;28;20062;-50
2024/01/29 21:58:36;;;;;;;0.00;0.00;;;;;;;3.78;61.01;102474.25;15838289;28;20028;-51
2024/01/29 22:06:10;;;;;;;0.55;0.55;;;;;;;3.52;61.94;102484.28;15811917;28;20036;-49
2024/01/29 22:13:45;;;;;;;2.83;0.65;;;;;;;3.37;62.48;102491.66;15837487;28;20044;-51
2024/01/29 22:21:20;;;;;;;0.13;0.13;;;;;;;3.10;63.20;102488.50;15857358;28;20084;-51
2024/01/29 22:28:56;;;;;;;0.15;0.15;;;;;;;3.03;63.67;102490.75;15859785;28;20101;-50
2024/01/29 22:36:31;;;;;;;0.35;0.35;;;;;;;3.05;64.11;102495.00;15858134;28;20055;-49
2024/01/29 22:44:06;;;;;;;;;;;;;;;2.92;64.88;102483.63;15832982;28;20088;-50
2024/01/29 22:51:43;;;;;;;0.00;0.00;;;;;;;3.41;63.37;102487.81;15805241;28;19919;-49
2024/01/29 22:59:19;;;;;;;0.00;0.00;;;;;;;3.41;63.32;102493.09;15817512;28;20044;-51
2024/01/29 23:06:53;;;;;;;0.00;0.00;;;;;;;3.58;62.63;102495.25;15832912;28;20055;-51
2024/01/29 23:14:28;;;;;;;;;;;;;;;3.55;62.75;102498.19;15821918;28;20048;-50
2024/01/29 23:22:01;;;;;;;0.00;0.00;;;;;;;3.46;62.42;102498.91;15839103;28;20299;-49
2024/01/29 23:29:36;;;;;;;1.77;0.82;;;;;;;3.43;62.66;102501.78;15850322;28;20411;-49
2024/01/29 23:37:20;;;;;;;2.35;1.83;;;;;;;3.37;63.07;102509.41;15835998;28;20068;-48
2024/01/29 23:44:55;;;;;;;0.08;0.08;;;;;;;3.10;63.34;102504.41;15829989;28;20052;-49
2024/01/29 23:52:29;;;;;;;0.32;0.32;;;;;;;3.09;63.45;102500.91;15842155;28;20115;-49
